Accueil
METAR-TAF:

METAR-TAF

Aéroports :

Farnborough, Angleterre

latitude: 51-17N, longitude: 000-46W, altitude: 65 m

Observation

Le bulletin a été fait il y a 6 heures et 26 minutes, à 19:20 UTC
Vent 14 kt de sud-ouest, variant entre sud/sud-ouest et ouest
Température 14°C
Humidité 77%
Pression 1017 hPa
Visibilité 10 km ou plus
Quelques nuages à une hauteur de 2800 ft

METAR: EGLF 161920Z 22014KT 200V260 9999 FEW028 14/10 Q1017

Heure: 02:46 (01:46 UTC)

Prévision

Le bulletin a été fait il y a 8 heures et 46 minutes, à 17:00 UTC
Prévision valable du 16 à 18 UTC au 16 à 21 UTC
Vent 20 kt de sud-ouest avec des rafales jusqu'à 30 kt
Visibilité 10 km ou plus
Quelques nuages à une hauteur de 2000 ft

TAF: EGLF 161700Z 1618/1621 22020G30KT 9999 FEW020

Observations et prévisions météorologiques de plus de 4000 aéroports (messages METAR et TAF).

Les stations disponibles sont représentées par des disques jaunes et rouges sur la carte.

Passer la souris dessus pour voir le nom de la station.

Cliquer dessus pour voir les observations et prévisions météorologiques.

Pour changer de carte: cliquez sur les boutons verts avec une croix noire pour zoomer, sur le bouton vert avec un tiret pour effectuer un zoom arrière, ou sur les flèches vertes pour les cartes adjacentes.


METAR-TAF: